TPOK1: Kansas River, State-Line, KS

                                SHEF ID:       TPOK1     MARAIS DES CYGNES R NR KS-MO ST
STATION TYPE:

STAGE STAGE(2) RIV-FLOW BAT-LOAD
ft ft cfs volt
Ccp-Rev Ccp-Rev Ccp-Rev Ccp-Rev
(America/Chicago)
06/30 00:00 8.68 8.66 2552 12.52
06/30 01:00 8.63 8.62 2520 12.50
06/30 02:00 8.60 8.55 2501 12.48
06/30 03:00 8.50 8.50 2437 12.47
06/30 04:00 8.47 8.42 2418 12.44
06/30 05:00 8.41 8.42 2380 12.44
06/30 06:00 8.36 8.38 2349 12.42
06/30 07:00 8.32 8.31 2324 12.42
06/30 08:00 8.29 8.23 2305 12.45
06/30 09:00 8.24 8.22 2274 12.80
06/30 10:00 8.22 8.18 2261 13.23
06/30 11:00 8.17 8.12 2231 13.00
06/30 12:00 8.13 8.12 2206 13.35
06/30 13:00 8.08 8.04 2175 13.28
06/30 14:00 8.04 8.04 2151 13.19
06/30 15:00 8.01 7.98 2133 13.03
06/30 16:00 7.98 7.98 2115 12.93
06/30 17:00 7.95 7.92 2097 12.84
06/30 18:00 7.92 7.90 2079 12.73
06/30 19:00 7.89 7.89 2061 12.69
06/30 20:00 7.85 7.88 2037 12.61
06/30 21:00 7.82 7.80 2019 12.57
06/30 22:00 7.82 7.78 2019 12.56
06/30 23:00 7.81 7.75 2013 12.53
Data processed at Wed 01Jul2026 04:52 GMT

NOTICE: If you are parsing this page

Please convert to using our Data API. Starting early 2026 we will be migrating to: https://water.usace.army.mil with modern pages rendered in JavaScript. When this migration completes you will no longer be able to scrape this page! CWMSDataAPI (CDA)

Timeseries IDs (TSIDs)

TSIDs used from left to right in the data table
MKSL.Stage.Inst.1Hour.0.Ccp-Rev
MKSL.Stage-Alt.Inst.1Hour.0.Ccp-Rev
MKSL.Flow.Inst.1Hour.0.Ccp-Rev
MKSL.Volt-Battery Load.Inst.1Hour.0.Ccp-Rev

                            

All information presented herein is the property of the government of the United States of America and may be revised or deleted at any time without prior notice. Dissemination of this information without the expressed written consent of the Public Affairs Office, Tulsa District U.S. Army Corps of Engineers is strictly prohibited. These data are gathered electronically and, as presented, have NOT undergone any form of quality control. These data are NOT guaranteed to be valid or correct.